sensor_id;sensor_type;location;lat;lon;timestamp;temperature;humidity
6810;DHT22;3443;48.812;9.112;2023-04-24T00:00:36;11.30;99.90
6810;DHT22;3443;48.812;9.112;2023-04-24T00:03:03;11.30;99.90
6810;DHT22;3443;48.812;9.112;2023-04-24T00:05:29;11.40;99.90
6810;DHT22;3443;48.812;9.112;2023-04-24T00:07:54;11.40;99.90
6810;DHT22;3443;48.812;9.112;2023-04-24T00:10:21;11.40;99.90
6810;DHT22;3443;48.812;9.112;2023-04-24T00:12:46;11.40;99.90
6810;DHT22;3443;48.812;9.112;2023-04-24T00:15:12;11.40;99.90
6810;DHT22;3443;48.812;9.112;2023-04-24T00:17:37;11.40;99.90
6810;DHT22;3443;48.812;9.112;2023-04-24T00:20:04;11.40;99.90
6810;DHT22;3443;48.812;9.112;2023-04-24T00:22:32;11.50;99.90
6810;DHT22;3443;48.812;9.112;2023-04-24T00:24:58;11.50;99.90
6810;DHT22;3443;48.812;9.112;2023-04-24T00:27:24;11.50;99.90
6810;DHT22;3443;48.812;9.112;2023-04-24T00:29:49;11.50;99.90
6810;DHT22;3443;48.812;9.112;2023-04-24T00:32:15;11.50;99.90
6810;DHT22;3443;48.812;9.112;2023-04-24T00:34:41;11.50;99.90
6810;DHT22;3443;48.812;9.112;2023-04-24T00:37:06;11.50;99.90
6810;DHT22;3443;48.812;9.112;2023-04-24T00:39:32;11.50;99.90
6810;DHT22;3443;48.812;9.112;2023-04-24T00:41:58;11.50;99.90
6810;DHT22;3443;48.812;9.112;2023-04-24T00:44:24;11.50;99.90
6810;DHT22;3443;48.812;9.112;2023-04-24T00:46:50;11.50;99.90
6810;DHT22;3443;48.812;9.112;2023-04-24T00:49:20;11.50;99.90
6810;DHT22;3443;48.812;9.112;2023-04-24T00:51:45;11.50;99.90
6810;DHT22;3443;48.812;9.112;2023-04-24T00:54:12;11.60;99.90
6810;DHT22;3443;48.812;9.112;2023-04-24T00:56:38;11.50;99.90
6810;DHT22;3443;48.812;9.112;2023-04-24T00:59:04;11.50;99.90
6810;DHT22;3443;48.812;9.112;2023-04-24T01:01:30;11.50;99.90
6810;DHT22;3443;48.812;9.112;2023-04-24T01:03:57;11.50;99.90
6810;DHT22;3443;48.812;9.112;2023-04-24T01:06:23;11.50;99.90
6810;DHT22;3443;48.812;9.112;2023-04-24T01:08:52;11.50;99.90
6810;DHT22;3443;48.812;9.112;2023-04-24T01:11:18;11.50;99.90
6810;DHT22;3443;48.812;9.112;2023-04-24T01:13:43;11.50;99.90
6810;DHT22;3443;48.812;9.112;2023-04-24T01:16:10;11.50;99.90
6810;DHT22;3443;48.812;9.112;2023-04-24T01:18:36;11.50;99.90
6810;DHT22;3443;48.812;9.112;2023-04-24T01:21:03;11.50;99.90
6810;DHT22;3443;48.812;9.112;2023-04-24T01:23:29;11.50;99.90
6810;DHT22;3443;48.812;9.112;2023-04-24T01:25:55;11.50;99.90
6810;DHT22;3443;48.812;9.112;2023-04-24T01:28:21;11.40;99.90
6810;DHT22;3443;48.812;9.112;2023-04-24T01:30:47;11.40;99.90
6810;DHT22;3443;48.812;9.112;2023-04-24T01:33:13;11.40;99.90
6810;DHT22;3443;48.812;9.112;2023-04-24T01:35:39;11.30;99.90
6810;DHT22;3443;48.812;9.112;2023-04-24T01:38:05;11.30;99.90
6810;DHT22;3443;48.812;9.112;2023-04-24T01:40:32;11.30;99.90
6810;DHT22;3443;48.812;9.112;2023-04-24T01:42:58;11.30;99.90
6810;DHT22;3443;48.812;9.112;2023-04-24T01:45:24;11.30;99.90
6810;DHT22;3443;48.812;9.112;2023-04-24T01:47:50;11.30;99.90
6810;DHT22;3443;48.812;9.112;2023-04-24T01:50:16;11.30;99.90
6810;DHT22;3443;48.812;9.112;2023-04-24T01:52:42;11.20;99.90
6810;DHT22;3443;48.812;9.112;2023-04-24T01:55:08;11.20;99.90
6810;DHT22;3443;48.812;9.112;2023-04-24T01:57:33;11.20;99.90
6810;DHT22;3443;48.812;9.112;2023-04-24T01:59:59;11.20;99.90
6810;DHT22;3443;48.812;9.112;2023-04-24T02:02:25;11.10;99.90
6810;DHT22;3443;48.812;9.112;2023-04-24T02:04:53;11.10;99.90
6810;DHT22;3443;48.812;9.112;2023-04-24T02:07:19;11.10;99.90
6810;DHT22;3443;48.812;9.112;2023-04-24T02:09:45;11.10;99.90
6810;DHT22;3443;48.812;9.112;2023-04-24T02:12:10;11.10;99.90
6810;DHT22;3443;48.812;9.112;2023-04-24T02:14:36;11.10;99.90
6810;DHT22;3443;48.812;9.112;2023-04-24T02:17:02;10.90;99.90
6810;DHT22;3443;48.812;9.112;2023-04-24T02:19:27;11.10;99.90
6810;DHT22;3443;48.812;9.112;2023-04-24T02:21:53;11.10;99.90
6810;DHT22;3443;48.812;9.112;2023-04-24T02:24:18;11.10;99.90
6810;DHT22;3443;48.812;9.112;2023-04-24T02:26:44;11.10;99.90
6810;DHT22;3443;48.812;9.112;2023-04-24T02:29:10;11.10;99.90
6810;DHT22;3443;48.812;9.112;2023-04-24T02:31:36;11.20;99.90
6810;DHT22;3443;48.812;9.112;2023-04-24T02:34:01;11.20;99.90
6810;DHT22;3443;48.812;9.112;2023-04-24T02:36:27;11.20;99.90
6810;DHT22;3443;48.812;9.112;2023-04-24T02:38:52;11.20;99.90
6810;DHT22;3443;48.812;9.112;2023-04-24T02:41:18;11.20;99.90
6810;DHT22;3443;48.812;9.112;2023-04-24T02:43:43;11.20;99.90
6810;DHT22;3443;48.812;9.112;2023-04-24T02:46:12;11.10;99.90
6810;DHT22;3443;48.812;9.112;2023-04-24T02:48:38;11.00;99.90
6810;DHT22;3443;48.812;9.112;2023-04-24T02:51:03;11.00;99.90
6810;DHT22;3443;48.812;9.112;2023-04-24T02:53:29;10.90;99.90
6810;DHT22;3443;48.812;9.112;2023-04-24T02:55:56;10.90;99.90
6810;DHT22;3443;48.812;9.112;2023-04-24T02:58:21;10.90;99.90
6810;DHT22;3443;48.812;9.112;2023-04-24T03:00:47;10.80;99.90
6810;DHT22;3443;48.812;9.112;2023-04-24T03:03:13;10.80;99.90
6810;DHT22;3443;48.812;9.112;2023-04-24T03:05:39;10.80;99.90
6810;DHT22;3443;48.812;9.112;2023-04-24T03:08:05;10.70;99.90
6810;DHT22;3443;48.812;9.112;2023-04-24T03:10:31;10.70;99.90
6810;DHT22;3443;48.812;9.112;2023-04-24T03:12:57;10.70;99.90
6810;DHT22;3443;48.812;9.112;2023-04-24T03:15:23;10.60;99.90
6810;DHT22;3443;48.812;9.112;2023-04-24T03:17:48;10.60;99.90
6810;DHT22;3443;48.812;9.112;2023-04-24T03:20:14;10.60;99.90
6810;DHT22;3443;48.812;9.112;2023-04-24T03:22:40;10.50;99.90
6810;DHT22;3443;48.812;9.112;2023-04-24T03:25:06;10.50;99.90
6810;DHT22;3443;48.812;9.112;2023-04-24T03:27:33;10.40;99.90
6810;DHT22;3443;48.812;9.112;2023-04-24T03:29:59;10.40;99.90
6810;DHT22;3443;48.812;9.112;2023-04-24T03:32:25;10.40;99.90
6810;DHT22;3443;48.812;9.112;2023-04-24T03:34:50;10.40;99.90
6810;DHT22;3443;48.812;9.112;2023-04-24T03:37:16;10.40;99.90
6810;DHT22;3443;48.812;9.112;2023-04-24T03:39:42;10.40;99.90
6810;DHT22;3443;48.812;9.112;2023-04-24T03:42:08;10.40;99.90
6810;DHT22;3443;48.812;9.112;2023-04-24T03:44:34;10.30;99.90
6810;DHT22;3443;48.812;9.112;2023-04-24T03:47:00;10.30;99.90
6810;DHT22;3443;48.812;9.112;2023-04-24T03:49:26;10.20;99.90
6810;DHT22;3443;48.812;9.112;2023-04-24T03:51:51;10.20;99.90
6810;DHT22;3443;48.812;9.112;2023-04-24T03:54:18;10.20;99.90
6810;DHT22;3443;48.812;9.112;2023-04-24T03:56:43;10.20;99.90
6810;DHT22;3443;48.812;9.112;2023-04-24T03:59:09;10.10;99.90
6810;DHT22;3443;48.812;9.112;2023-04-24T04:01:36;10.10;99.90
6810;DHT22;3443;48.812;9.112;2023-04-24T04:04:03;10.20;99.90
6810;DHT22;3443;48.812;9.112;2023-04-24T04:06:29;10.20;99.90
6810;DHT22;3443;48.812;9.112;2023-04-24T04:08:56;10.20;99.90
6810;DHT22;3443;48.812;9.112;2023-04-24T04:11:22;10.30;99.90
6810;DHT22;3443;48.812;9.112;2023-04-24T04:13:48;10.30;99.90
6810;DHT22;3443;48.812;9.112;2023-04-24T04:16:14;10.30;99.90
6810;DHT22;3443;48.812;9.112;2023-04-24T04:18:42;10.40;99.90
6810;DHT22;3443;48.812;9.112;2023-04-24T04:21:07;10.40;99.90
6810;DHT22;3443;48.812;9.112;2023-04-24T04:23:33;10.40;99.90
6810;DHT22;3443;48.812;9.112;2023-04-24T04:25:58;10.40;99.90
6810;DHT22;3443;48.812;9.112;2023-04-24T04:28:24;10.40;99.90
6810;DHT22;3443;48.812;9.112;2023-04-24T04:30:50;10.30;99.90
6810;DHT22;3443;48.812;9.112;2023-04-24T04:33:22;10.30;99.90
6810;DHT22;3443;48.812;9.112;2023-04-24T04:35:48;10.30;99.90
6810;DHT22;3443;48.812;9.112;2023-04-24T04:38:22;10.30;99.90
6810;DHT22;3443;48.812;9.112;2023-04-24T04:40:48;10.20;99.90
6810;DHT22;3443;48.812;9.112;2023-04-24T04:43:13;10.10;99.90
6810;DHT22;3443;48.812;9.112;2023-04-24T04:45:40;10.10;99.90
6810;DHT22;3443;48.812;9.112;2023-04-24T04:48:08;10.00;99.90
6810;DHT22;3443;48.812;9.112;2023-04-24T04:50:37;10.00;99.90
6810;DHT22;3443;48.812;9.112;2023-04-24T04:53:02;10.00;99.90
6810;DHT22;3443;48.812;9.112;2023-04-24T04:55:28;10.10;99.90
6810;DHT22;3443;48.812;9.112;2023-04-24T04:57:54;10.00;99.90
6810;DHT22;3443;48.812;9.112;2023-04-24T05:00:21;10.00;99.90
6810;DHT22;3443;48.812;9.112;2023-04-24T05:02:47;10.00;99.90
6810;DHT22;3443;48.812;9.112;2023-04-24T05:05:12;10.00;99.90
6810;DHT22;3443;48.812;9.112;2023-04-24T05:07:38;10.00;99.90
6810;DHT22;3443;48.812;9.112;2023-04-24T05:10:04;9.90;99.90
6810;DHT22;3443;48.812;9.112;2023-04-24T05:12:30;9.90;99.90
6810;DHT22;3443;48.812;9.112;2023-04-24T05:14:55;9.90;99.90
6810;DHT22;3443;48.812;9.112;2023-04-24T05:17:21;9.80;99.90
6810;DHT22;3443;48.812;9.112;2023-04-24T05:19:46;9.80;99.90
6810;DHT22;3443;48.812;9.112;2023-04-24T05:22:13;9.80;99.90
6810;DHT22;3443;48.812;9.112;2023-04-24T05:24:39;9.80;99.90
6810;DHT22;3443;48.812;9.112;2023-04-24T05:27:05;9.80;99.90
6810;DHT22;3443;48.812;9.112;2023-04-24T05:29:33;9.80;99.90
6810;DHT22;3443;48.812;9.112;2023-04-24T05:32:00;9.90;99.90
6810;DHT22;3443;48.812;9.112;2023-04-24T05:34:26;9.90;99.90
6810;DHT22;3443;48.812;9.112;2023-04-24T05:36:51;9.90;99.90
6810;DHT22;3443;48.812;9.112;2023-04-24T05:39:17;9.90;99.90
6810;DHT22;3443;48.812;9.112;2023-04-24T05:41:43;9.90;99.90
6810;DHT22;3443;48.812;9.112;2023-04-24T05:44:09;9.80;99.90
6810;DHT22;3443;48.812;9.112;2023-04-24T05:46:35;9.80;99.90
6810;DHT22;3443;48.812;9.112;2023-04-24T05:49:00;9.70;99.90
6810;DHT22;3443;48.812;9.112;2023-04-24T05:51:26;9.80;99.90
6810;DHT22;3443;48.812;9.112;2023-04-24T05:53:52;9.90;99.90
6810;DHT22;3443;48.812;9.112;2023-04-24T05:56:18;9.90;99.90
6810;DHT22;3443;48.812;9.112;2023-04-24T05:58:43;9.90;99.90
6810;DHT22;3443;48.812;9.112;2023-04-24T06:01:09;9.90;99.90
6810;DHT22;3443;48.812;9.112;2023-04-24T06:03:35;9.80;99.90
6810;DHT22;3443;48.812;9.112;2023-04-24T06:06:00;9.80;99.90
6810;DHT22;3443;48.812;9.112;2023-04-24T06:08:26;9.60;99.90
6810;DHT22;3443;48.812;9.112;2023-04-24T06:10:51;9.70;99.90
6810;DHT22;3443;48.812;9.112;2023-04-24T06:13:17;9.70;99.90
6810;DHT22;3443;48.812;9.112;2023-04-24T06:15:43;9.70;99.90
6810;DHT22;3443;48.812;9.112;2023-04-24T06:18:09;9.70;99.90
6810;DHT22;3443;48.812;9.112;2023-04-24T06:20:36;9.80;99.90
6810;DHT22;3443;48.812;9.112;2023-04-24T06:23:01;9.80;99.90
6810;DHT22;3443;48.812;9.112;2023-04-24T06:25:27;10.00;99.90
6810;DHT22;3443;48.812;9.112;2023-04-24T06:27:54;10.10;99.90
6810;DHT22;3443;48.812;9.112;2023-04-24T06:30:20;10.40;99.90
6810;DHT22;3443;48.812;9.112;2023-04-24T06:32:45;10.60;99.90
6810;DHT22;3443;48.812;9.112;2023-04-24T06:35:11;10.60;99.90
6810;DHT22;3443;48.812;9.112;2023-04-24T06:37:39;10.70;99.90
6810;DHT22;3443;48.812;9.112;2023-04-24T06:40:05;10.80;99.90
6810;DHT22;3443;48.812;9.112;2023-04-24T06:42:31;10.90;99.90
6810;DHT22;3443;48.812;9.112;2023-04-24T06:44:57;11.10;99.90
6810;DHT22;3443;48.812;9.112;2023-04-24T06:47:22;11.30;99.90
6810;DHT22;3443;48.812;9.112;2023-04-24T06:49:48;11.30;99.90
6810;DHT22;3443;48.812;9.112;2023-04-24T06:52:16;11.50;99.90
6810;DHT22;3443;48.812;9.112;2023-04-24T06:54:41;11.60;99.90
6810;DHT22;3443;48.812;9.112;2023-04-24T06:57:08;11.60;99.90
6810;DHT22;3443;48.812;9.112;2023-04-24T06:59:34;11.60;99.90
6810;DHT22;3443;48.812;9.112;2023-04-24T07:01:59;11.70;99.90
6810;DHT22;3443;48.812;9.112;2023-04-24T07:04:25;11.90;99.90
6810;DHT22;3443;48.812;9.112;2023-04-24T07:06:51;12.00;99.90
6810;DHT22;3443;48.812;9.112;2023-04-24T07:09:19;12.00;99.90
6810;DHT22;3443;48.812;9.112;2023-04-24T07:11:45;12.00;99.90
6810;DHT22;3443;48.812;9.112;2023-04-24T07:14:11;11.90;99.90
6810;DHT22;3443;48.812;9.112;2023-04-24T07:16:37;11.70;99.90
6810;DHT22;3443;48.812;9.112;2023-04-24T07:19:03;11.60;99.90
6810;DHT22;3443;48.812;9.112;2023-04-24T07:21:29;11.70;99.90
6810;DHT22;3443;48.812;9.112;2023-04-24T07:23:56;11.50;99.90
6810;DHT22;3443;48.812;9.112;2023-04-24T07:26:21;11.50;99.90
6810;DHT22;3443;48.812;9.112;2023-04-24T07:28:47;11.50;99.90
6810;DHT22;3443;48.812;9.112;2023-04-24T07:31:13;11.60;99.90
6810;DHT22;3443;48.812;9.112;2023-04-24T07:33:38;11.70;99.90
6810;DHT22;3443;48.812;9.112;2023-04-24T07:36:04;11.90;99.90
6810;DHT22;3443;48.812;9.112;2023-04-24T07:38:30;11.90;99.90
6810;DHT22;3443;48.812;9.112;2023-04-24T07:40:56;12.10;99.90
6810;DHT22;3443;48.812;9.112;2023-04-24T07:43:22;12.30;99.90
6810;DHT22;3443;48.812;9.112;2023-04-24T07:45:49;12.30;99.90
6810;DHT22;3443;48.812;9.112;2023-04-24T07:48:15;12.50;99.90
6810;DHT22;3443;48.812;9.112;2023-04-24T07:50:42;12.70;99.90
6810;DHT22;3443;48.812;9.112;2023-04-24T07:53:07;12.70;99.90
6810;DHT22;3443;48.812;9.112;2023-04-24T07:55:33;12.70;99.90
6810;DHT22;3443;48.812;9.112;2023-04-24T07:57:59;12.80;99.90
6810;DHT22;3443;48.812;9.112;2023-04-24T08:00:24;12.60;99.90
6810;DHT22;3443;48.812;9.112;2023-04-24T08:02:50;12.40;99.90
6810;DHT22;3443;48.812;9.112;2023-04-24T08:05:16;12.20;99.90
6810;DHT22;3443;48.812;9.112;2023-04-24T08:07:41;12.30;99.90
6810;DHT22;3443;48.812;9.112;2023-04-24T08:10:10;12.40;99.90
6810;DHT22;3443;48.812;9.112;2023-04-24T08:12:36;12.50;99.90
6810;DHT22;3443;48.812;9.112;2023-04-24T08:15:02;12.50;99.90
6810;DHT22;3443;48.812;9.112;2023-04-24T08:17:28;12.40;99.90
6810;DHT22;3443;48.812;9.112;2023-04-24T08:19:53;12.30;99.90
6810;DHT22;3443;48.812;9.112;2023-04-24T08:22:29;12.40;99.90
6810;DHT22;3443;48.812;9.112;2023-04-24T08:24:55;12.70;99.90
6810;DHT22;3443;48.812;9.112;2023-04-24T08:27:22;12.60;99.90
6810;DHT22;3443;48.812;9.112;2023-04-24T08:29:48;12.70;99.90
6810;DHT22;3443;48.812;9.112;2023-04-24T08:32:14;12.70;99.90
6810;DHT22;3443;48.812;9.112;2023-04-24T08:34:40;12.80;99.90
6810;DHT22;3443;48.812;9.112;2023-04-24T08:37:05;13.10;99.90
6810;DHT22;3443;48.812;9.112;2023-04-24T08:39:31;13.20;99.90
6810;DHT22;3443;48.812;9.112;2023-04-24T08:41:56;13.40;99.90
6810;DHT22;3443;48.812;9.112;2023-04-24T08:44:22;13.40;99.90
6810;DHT22;3443;48.812;9.112;2023-04-24T08:46:48;13.00;99.90
6810;DHT22;3443;48.812;9.112;2023-04-24T08:49:15;12.60;99.90
6810;DHT22;3443;48.812;9.112;2023-04-24T08:51:44;12.30;99.90
6810;DHT22;3443;48.812;9.112;2023-04-24T08:54:12;12.40;99.90
6810;DHT22;3443;48.812;9.112;2023-04-24T08:56:38;12.50;99.90
6810;DHT22;3443;48.812;9.112;2023-04-24T08:59:06;12.60;99.90
6810;DHT22;3443;48.812;9.112;2023-04-24T09:01:32;12.80;99.90
6810;DHT22;3443;48.812;9.112;2023-04-24T09:04:03;12.90;99.90
6810;DHT22;3443;48.812;9.112;2023-04-24T09:06:30;12.50;99.90
6810;DHT22;3443;48.812;9.112;2023-04-24T09:09:01;12.30;99.90
6810;DHT22;3443;48.812;9.112;2023-04-24T09:11:30;12.10;99.90
6810;DHT22;3443;48.812;9.112;2023-04-24T09:13:57;12.00;99.90
6810;DHT22;3443;48.812;9.112;2023-04-24T09:16:24;11.80;99.90
6810;DHT22;3443;48.812;9.112;2023-04-24T09:18:51;11.70;99.90
6810;DHT22;3443;48.812;9.112;2023-04-24T09:21:17;11.40;99.90
6810;DHT22;3443;48.812;9.112;2023-04-24T09:23:43;11.20;99.90
6810;DHT22;3443;48.812;9.112;2023-04-24T09:26:09;11.20;99.90
6810;DHT22;3443;48.812;9.112;2023-04-24T09:28:40;11.10;99.90
6810;DHT22;3443;48.812;9.112;2023-04-24T09:31:11;11.30;99.90
6810;DHT22;3443;48.812;9.112;2023-04-24T09:33:38;11.30;99.90
6810;DHT22;3443;48.812;9.112;2023-04-24T09:36:04;11.30;99.90
6810;DHT22;3443;48.812;9.112;2023-04-24T09:38:35;11.40;99.90
6810;DHT22;3443;48.812;9.112;2023-04-24T09:41:07;11.70;99.90
6810;DHT22;3443;48.812;9.112;2023-04-24T09:43:34;11.80;99.90
6810;DHT22;3443;48.812;9.112;2023-04-24T09:46:05;11.70;99.90
6810;DHT22;3443;48.812;9.112;2023-04-24T09:48:37;11.80;99.90
6810;DHT22;3443;48.812;9.112;2023-04-24T09:51:05;11.80;99.90
6810;DHT22;3443;48.812;9.112;2023-04-24T09:53:36;11.60;99.90
6810;DHT22;3443;48.812;9.112;2023-04-24T09:56:08;11.60;99.90
6810;DHT22;3443;48.812;9.112;2023-04-24T09:58:36;11.40;99.90
6810;DHT22;3443;48.812;9.112;2023-04-24T10:01:02;11.40;99.90
6810;DHT22;3443;48.812;9.112;2023-04-24T10:03:31;11.40;99.90
6810;DHT22;3443;48.812;9.112;2023-04-24T10:06:01;11.50;99.90
6810;DHT22;3443;48.812;9.112;2023-04-24T10:08:33;11.60;99.90
6810;DHT22;3443;48.812;9.112;2023-04-24T10:11:00;11.90;99.90
6810;DHT22;3443;48.812;9.112;2023-04-24T10:13:25;12.10;99.90
6810;DHT22;3443;48.812;9.112;2023-04-24T10:15:51;12.40;99.90
6810;DHT22;3443;48.812;9.112;2023-04-24T10:18:17;12.80;99.90
6810;DHT22;3443;48.812;9.112;2023-04-24T10:20:43;13.50;99.90
6810;DHT22;3443;48.812;9.112;2023-04-24T10:23:08;13.60;99.90
6810;DHT22;3443;48.812;9.112;2023-04-24T10:25:35;13.80;99.90
6810;DHT22;3443;48.812;9.112;2023-04-24T10:28:03;13.70;99.90
6810;DHT22;3443;48.812;9.112;2023-04-24T10:30:33;13.60;99.90
6810;DHT22;3443;48.812;9.112;2023-04-24T10:33:03;13.20;99.90
6810;DHT22;3443;48.812;9.112;2023-04-24T10:35:37;12.90;99.90
6810;DHT22;3443;48.812;9.112;2023-04-24T10:38:06;12.70;99.90
6810;DHT22;3443;48.812;9.112;2023-04-24T10:40:34;12.50;99.90
6810;DHT22;3443;48.812;9.112;2023-04-24T10:43:04;12.50;99.90
6810;DHT22;3443;48.812;9.112;2023-04-24T10:45:35;12.60;99.90
6810;DHT22;3443;48.812;9.112;2023-04-24T10:48:05;12.70;99.90
6810;DHT22;3443;48.812;9.112;2023-04-24T10:50:46;12.70;99.90
6810;DHT22;3443;48.812;9.112;2023-04-24T10:53:23;12.60;99.90
6810;DHT22;3443;48.812;9.112;2023-04-24T10:56:07;12.60;99.90
6810;DHT22;3443;48.812;9.112;2023-04-24T10:58:40;12.70;99.90
6810;DHT22;3443;48.812;9.112;2023-04-24T11:01:06;12.70;99.90
6810;DHT22;3443;48.812;9.112;2023-04-24T11:03:34;12.60;99.90
6810;DHT22;3443;48.812;9.112;2023-04-24T11:06:08;12.40;99.90
6810;DHT22;3443;48.812;9.112;2023-04-24T11:08:43;12.20;99.90
6810;DHT22;3443;48.812;9.112;2023-04-24T11:11:14;12.00;99.90
6810;DHT22;3443;48.812;9.112;2023-04-24T11:16:57;12.10;99.90
6810;DHT22;3443;48.812;9.112;2023-04-24T11:19:26;12.30;99.90
6810;DHT22;3443;48.812;9.112;2023-04-24T11:24:25;12.50;99.90
6810;DHT22;3443;48.812;9.112;2023-04-24T11:26:58;12.80;99.90
6810;DHT22;3443;48.812;9.112;2023-04-24T11:32:15;13.00;99.90
6810;DHT22;3443;48.812;9.112;2023-04-24T11:34:46;13.10;99.90
6810;DHT22;3443;48.812;9.112;2023-04-24T11:37:13;13.00;99.90
6810;DHT22;3443;48.812;9.112;2023-04-24T11:39:38;13.10;99.90
6810;DHT22;3443;48.812;9.112;2023-04-24T11:42:04;12.90;99.90
6810;DHT22;3443;48.812;9.112;2023-04-24T11:44:33;12.70;99.90
6810;DHT22;3443;48.812;9.112;2023-04-24T11:47:00;12.50;99.90
6810;DHT22;3443;48.812;9.112;2023-04-24T11:49:25;12.40;99.90
6810;DHT22;3443;48.812;9.112;2023-04-24T11:51:55;12.30;99.90
6810;DHT22;3443;48.812;9.112;2023-04-24T11:54:21;12.60;99.90
6810;DHT22;3443;48.812;9.112;2023-04-24T11:56:47;12.80;99.90
6810;DHT22;3443;48.812;9.112;2023-04-24T11:59:13;13.00;99.90
6810;DHT22;3443;48.812;9.112;2023-04-24T12:01:43;13.30;99.90
6810;DHT22;3443;48.812;9.112;2023-04-24T12:04:09;13.50;99.90
6810;DHT22;3443;48.812;9.112;2023-04-24T12:06:35;13.50;99.90
6810;DHT22;3443;48.812;9.112;2023-04-24T12:09:01;13.30;99.90
6810;DHT22;3443;48.812;9.112;2023-04-24T12:11:26;13.00;99.90
6810;DHT22;3443;48.812;9.112;2023-04-24T12:13:52;12.70;99.90
6810;DHT22;3443;48.812;9.112;2023-04-24T12:16:18;12.60;99.90
6810;DHT22;3443;48.812;9.112;2023-04-24T12:18:44;12.50;99.90
6810;DHT22;3443;48.812;9.112;2023-04-24T12:21:18;12.50;99.90
6810;DHT22;3443;48.812;9.112;2023-04-24T12:23:44;12.50;99.90
6810;DHT22;3443;48.812;9.112;2023-04-24T12:26:11;12.50;99.90
6810;DHT22;3443;48.812;9.112;2023-04-24T12:28:38;12.60;99.90
6810;DHT22;3443;48.812;9.112;2023-04-24T12:31:05;12.60;99.90
6810;DHT22;3443;48.812;9.112;2023-04-24T12:33:35;12.50;99.90
6810;DHT22;3443;48.812;9.112;2023-04-24T12:36:01;12.40;99.90
6810;DHT22;3443;48.812;9.112;2023-04-24T12:38:28;12.30;99.90
6810;DHT22;3443;48.812;9.112;2023-04-24T12:43:28;12.30;99.90
6810;DHT22;3443;48.812;9.112;2023-04-24T12:45:53;12.40;99.90
6810;DHT22;3443;48.812;9.112;2023-04-24T12:48:19;12.30;99.90
6810;DHT22;3443;48.812;9.112;2023-04-24T12:50:45;12.20;99.90
6810;DHT22;3443;48.812;9.112;2023-04-24T12:53:11;12.10;99.90
6810;DHT22;3443;48.812;9.112;2023-04-24T12:55:37;12.10;99.90
6810;DHT22;3443;48.812;9.112;2023-04-24T12:58:03;11.80;99.90
6810;DHT22;3443;48.812;9.112;2023-04-24T13:00:28;11.60;99.90
6810;DHT22;3443;48.812;9.112;2023-04-24T13:02:54;11.50;99.90
6810;DHT22;3443;48.812;9.112;2023-04-24T13:05:20;11.30;99.90
6810;DHT22;3443;48.812;9.112;2023-04-24T13:07:45;11.40;99.90
6810;DHT22;3443;48.812;9.112;2023-04-24T13:10:11;11.60;99.90
6810;DHT22;3443;48.812;9.112;2023-04-24T13:12:38;11.80;99.90
6810;DHT22;3443;48.812;9.112;2023-04-24T13:15:05;12.10;99.90
6810;DHT22;3443;48.812;9.112;2023-04-24T13:17:31;12.30;99.90
6810;DHT22;3443;48.812;9.112;2023-04-24T13:19:56;12.50;99.90
6810;DHT22;3443;48.812;9.112;2023-04-24T13:22:22;12.70;99.90
6810;DHT22;3443;48.812;9.112;2023-04-24T13:24:48;12.70;99.90
6810;DHT22;3443;48.812;9.112;2023-04-24T13:27:17;12.80;99.90
6810;DHT22;3443;48.812;9.112;2023-04-24T13:29:43;12.80;99.90
6810;DHT22;3443;48.812;9.112;2023-04-24T13:32:09;12.80;99.90
6810;DHT22;3443;48.812;9.112;2023-04-24T13:34:35;12.60;99.90
6810;DHT22;3443;48.812;9.112;2023-04-24T13:37:01;12.40;99.90
6810;DHT22;3443;48.812;9.112;2023-04-24T13:39:28;12.30;99.90
6810;DHT22;3443;48.812;9.112;2023-04-24T13:41:55;12.30;99.90
6810;DHT22;3443;48.812;9.112;2023-04-24T13:44:21;12.30;99.90
6810;DHT22;3443;48.812;9.112;2023-04-24T13:46:49;12.20;99.90
6810;DHT22;3443;48.812;9.112;2023-04-24T13:49:15;12.20;99.90
6810;DHT22;3443;48.812;9.112;2023-04-24T13:51:42;12.40;99.90
6810;DHT22;3443;48.812;9.112;2023-04-24T13:54:08;12.70;99.90
6810;DHT22;3443;48.812;9.112;2023-04-24T13:56:34;12.90;99.90
6810;DHT22;3443;48.812;9.112;2023-04-24T13:59:00;13.20;99.90
6810;DHT22;3443;48.812;9.112;2023-04-24T14:01:25;13.40;99.90
6810;DHT22;3443;48.812;9.112;2023-04-24T14:03:55;13.30;99.90
6810;DHT22;3443;48.812;9.112;2023-04-24T14:06:21;13.20;99.90
6810;DHT22;3443;48.812;9.112;2023-04-24T14:08:47;13.50;99.90
6810;DHT22;3443;48.812;9.112;2023-04-24T14:11:13;13.70;99.90
6810;DHT22;3443;48.812;9.112;2023-04-24T14:13:41;13.90;99.90
6810;DHT22;3443;48.812;9.112;2023-04-24T14:16:07;14.00;99.90
6810;DHT22;3443;48.812;9.112;2023-04-24T14:18:33;14.00;99.90
6810;DHT22;3443;48.812;9.112;2023-04-24T14:20:58;14.00;99.90
6810;DHT22;3443;48.812;9.112;2023-04-24T14:23:25;14.00;99.90
6810;DHT22;3443;48.812;9.112;2023-04-24T14:25:51;13.80;99.90
6810;DHT22;3443;48.812;9.112;2023-04-24T14:28:18;13.80;99.90
6810;DHT22;3443;48.812;9.112;2023-04-24T14:30:44;13.60;99.90
6810;DHT22;3443;48.812;9.112;2023-04-24T14:33:10;13.30;99.90
6810;DHT22;3443;48.812;9.112;2023-04-24T14:35:36;13.20;99.90
6810;DHT22;3443;48.812;9.112;2023-04-24T14:38:01;13.10;99.90
6810;DHT22;3443;48.812;9.112;2023-04-24T14:40:27;12.90;99.90
6810;DHT22;3443;48.812;9.112;2023-04-24T14:42:53;12.80;99.90
6810;DHT22;3443;48.812;9.112;2023-04-24T14:45:19;12.90;99.90
6810;DHT22;3443;48.812;9.112;2023-04-24T14:47:45;13.00;99.90
6810;DHT22;3443;48.812;9.112;2023-04-24T14:50:10;12.90;99.90
6810;DHT22;3443;48.812;9.112;2023-04-24T14:52:37;13.00;99.90
6810;DHT22;3443;48.812;9.112;2023-04-24T14:55:03;13.00;99.90
6810;DHT22;3443;48.812;9.112;2023-04-24T14:57:29;13.20;99.90
6810;DHT22;3443;48.812;9.112;2023-04-24T14:59:55;13.40;99.90
6810;DHT22;3443;48.812;9.112;2023-04-24T15:02:21;13.40;99.90
6810;DHT22;3443;48.812;9.112;2023-04-24T15:04:46;13.40;99.90
6810;DHT22;3443;48.812;9.112;2023-04-24T15:07:12;13.20;99.90
6810;DHT22;3443;48.812;9.112;2023-04-24T15:09:37;12.90;99.90
6810;DHT22;3443;48.812;9.112;2023-04-24T15:12:03;12.70;99.90
6810;DHT22;3443;48.812;9.112;2023-04-24T15:14:29;12.70;99.90
6810;DHT22;3443;48.812;9.112;2023-04-24T15:16:54;12.60;99.90
6810;DHT22;3443;48.812;9.112;2023-04-24T15:19:20;12.50;99.90
6810;DHT22;3443;48.812;9.112;2023-04-24T15:21:46;12.40;99.90
6810;DHT22;3443;48.812;9.112;2023-04-24T15:24:11;12.40;99.90
6810;DHT22;3443;48.812;9.112;2023-04-24T15:26:37;12.30;99.90
6810;DHT22;3443;48.812;9.112;2023-04-24T15:29:02;12.20;99.90
6810;DHT22;3443;48.812;9.112;2023-04-24T15:31:28;11.90;99.90
6810;DHT22;3443;48.812;9.112;2023-04-24T15:33:54;11.70;99.90
6810;DHT22;3443;48.812;9.112;2023-04-24T15:36:20;11.50;99.90
6810;DHT22;3443;48.812;9.112;2023-04-24T15:38:47;11.50;99.90
6810;DHT22;3443;48.812;9.112;2023-04-24T15:41:12;11.40;99.90
6810;DHT22;3443;48.812;9.112;2023-04-24T15:43:38;11.50;99.90
6810;DHT22;3443;48.812;9.112;2023-04-24T15:46:06;11.40;99.90
6810;DHT22;3443;48.812;9.112;2023-04-24T15:48:32;11.40;99.90
6810;DHT22;3443;48.812;9.112;2023-04-24T15:50:58;11.50;99.90
6810;DHT22;3443;48.812;9.112;2023-04-24T15:53:24;11.60;99.90
6810;DHT22;3443;48.812;9.112;2023-04-24T15:55:51;11.60;99.90
6810;DHT22;3443;48.812;9.112;2023-04-24T15:58:18;11.60;99.90
6810;DHT22;3443;48.812;9.112;2023-04-24T16:00:44;11.60;99.90
6810;DHT22;3443;48.812;9.112;2023-04-24T16:03:09;11.60;99.90
6810;DHT22;3443;48.812;9.112;2023-04-24T16:05:35;11.60;99.90
6810;DHT22;3443;48.812;9.112;2023-04-24T16:08:01;11.60;99.90